createdAt,value
2019-04-05T00:02:56.995Z,57.34
2019-04-05T00:08:08.895Z,57.28
2019-04-05T00:18:54.571Z,57.39
2019-04-05T00:24:07.270Z,57.51
2019-04-05T00:29:38.914Z,57.87
2019-04-05T00:34:49.472Z,57.68
2019-04-05T00:40:04.898Z,57.65
2019-04-05T00:45:27.910Z,57.34
2019-04-05T00:50:38.083Z,57.43
2019-04-05T00:55:44.192Z,57.25
2019-04-05T01:00:52.113Z,57.14
2019-04-05T01:06:04.268Z,57.22
2019-04-05T01:11:15.863Z,57.14
2019-04-05T01:16:23.907Z,57.34
2019-04-05T01:21:40.998Z,57.39
2019-04-05T01:27:14.090Z,57.54
2019-04-05T01:32:23.422Z,57.52
2019-04-05T01:37:39.476Z,57.44
2019-04-05T01:43:18.688Z,57.34
2019-04-05T01:48:30.016Z,57.47
2019-04-05T01:53:37.925Z,57.70
2019-04-05T01:59:00.463Z,57.64
2019-04-05T02:04:17.367Z,57.54
2019-04-05T02:09:25.921Z,57.50
2019-04-05T02:14:53.541Z,57.46
2019-04-05T02:20:04.263Z,57.44
2019-04-05T02:25:18.247Z,57.59
2019-04-05T02:30:32.438Z,57.65
2019-04-05T02:35:44.490Z,57.60
2019-04-05T02:41:01.273Z,57.82
2019-04-05T02:46:23.154Z,58.18
2019-04-05T02:51:34.649Z,58.31
2019-04-05T02:56:48.825Z,58.49
2019-04-05T03:01:59.593Z,58.44
2019-04-05T03:07:14.443Z,58.47
2019-04-05T03:12:23.974Z,58.55
2019-04-05T03:17:32.626Z,58.94
2019-04-05T03:22:49.094Z,59.92
2019-04-05T03:28:04.230Z,59.42
2019-04-05T03:33:16.581Z,59.37
2019-04-05T03:38:29.382Z,59.32
2019-04-05T03:44:01.483Z,59.88
2019-04-05T03:49:17.577Z,60.66
2019-04-05T03:54:48.652Z,61.03
2019-04-05T04:00:02.226Z,63.40
2019-04-05T04:05:19.449Z,63.68
2019-04-05T04:10:29.014Z,64.03
2019-04-05T04:15:42.756Z,63.75
2019-04-05T04:20:58.858Z,62.70
2019-04-05T04:26:33.284Z,62.58
2019-04-05T04:31:47.851Z,62.49
2019-04-05T04:37:00.662Z,62.08
2019-04-05T04:42:12.279Z,62.55
2019-04-05T04:47:26.785Z,62.24
2019-04-05T04:52:36.694Z,62.40
2019-04-05T04:57:45.091Z,63.47
2019-04-05T05:02:55.764Z,62.94
2019-04-05T05:08:07.967Z,63.06
2019-04-05T05:13:18.288Z,63.66
2019-04-05T05:18:30.618Z,63.83
2019-04-05T05:23:47.174Z,64.12
2019-04-05T05:28:58.687Z,63.81
2019-04-05T05:34:11.957Z,63.89
2019-04-05T05:39:25.733Z,64.34
2019-04-05T05:44:34.657Z,64.75
2019-04-05T05:49:48.145Z,64.53
2019-04-05T05:55:05.339Z,64.27
2019-04-05T06:00:23.080Z,63.75
2019-04-05T06:05:34.355Z,64.40
2019-04-05T06:10:45.347Z,64.57
2019-04-05T06:15:54.467Z,64.24
2019-04-05T06:21:04.667Z,64.23
2019-04-05T06:26:14.955Z,63.79
2019-04-05T06:31:27.812Z,63.67
2019-04-05T06:37:00.785Z,63.80
2019-04-05T06:42:10.691Z,63.31
2019-04-05T06:47:20.782Z,62.59
2019-04-05T06:52:27.485Z,62.04
2019-04-05T06:57:40.039Z,61.74
2019-04-05T07:02:54.535Z,61.58
2019-04-05T07:08:05.102Z,61.03
2019-04-05T07:13:17.131Z,60.40
2019-04-05T07:19:14.953Z,59.45
2019-04-05T07:24:45.830Z,59.29
2019-04-05T07:30:29.251Z,58.99
2019-04-05T07:35:52.970Z,58.76
2019-04-05T07:41:06.287Z,58.55
2019-04-05T07:46:16.286Z,57.57
2019-04-05T07:51:30.872Z,56.69
2019-04-05T07:56:48.111Z,56.22
2019-04-05T08:01:56.453Z,55.62
2019-04-05T08:07:09.570Z,55.25
2019-04-05T08:12:17.936Z,54.40
2019-04-05T08:17:29.861Z,53.98
2019-04-05T08:22:41.059Z,54.42
2019-04-05T08:27:51.850Z,52.40
2019-04-05T08:32:59.430Z,52.32
2019-04-05T08:38:12.887Z,52.43
2019-04-05T08:43:23.724Z,51.84
2019-04-05T08:48:38.389Z,51.99
2019-04-05T08:53:48.661Z,52.32
2019-04-05T08:58:59.848Z,51.61
2019-04-05T09:04:18.745Z,50.66
2019-04-05T09:09:31.146Z,51.19
2019-04-05T09:14:45.117Z,50.36
2019-04-05T09:19:59.279Z,49.82
2019-04-05T09:25:09.857Z,49.82
2019-04-05T09:30:28.386Z,49.99
2019-04-05T09:35:41.995Z,49.06
2019-04-05T09:40:59.072Z,49.13
2019-04-05T09:46:09.472Z,48.08
2019-04-05T09:51:21.830Z,47.57
2019-04-05T09:56:34.807Z,47.51
2019-04-05T10:01:49.740Z,46.66
2019-04-05T10:07:05.501Z,47.19
2019-04-05T10:12:16.097Z,44.69
2019-04-05T10:17:26.980Z,43.61
2019-04-05T10:23:08.318Z,40.56
2019-04-05T10:28:20.811Z,38.69
2019-04-05T10:33:35.509Z,37.70
2019-04-05T10:38:51.680Z,37.22
2019-04-05T10:44:04.925Z,38.19
2019-04-05T10:49:18.813Z,36.80
2019-04-05T10:54:29.273Z,33.39
2019-04-05T10:59:40.882Z,33.97
2019-04-05T11:04:52.256Z,35.37
2019-04-05T11:10:05.918Z,38.84
2019-04-05T11:15:15.746Z,37.98
2019-04-05T11:20:31.968Z,35.78
2019-04-05T11:25:43.276Z,36.33
2019-04-05T11:31:00.452Z,38.07
2019-04-05T11:36:13.673Z,38.03
2019-04-05T11:41:42.910Z,38.11
2019-04-05T11:47:01.351Z,38.39
2019-04-05T11:52:19.008Z,39.06
2019-04-05T11:57:32.488Z,42.02
2019-04-05T12:03:04.145Z,44.00
2019-04-05T12:08:15.081Z,43.44
2019-04-05T12:13:30.624Z,42.72
2019-04-05T12:20:27.499Z,42.87
2019-04-05T12:24:14.729Z,42.14
2019-04-05T12:29:35.074Z,41.75
2019-04-05T12:36:04.081Z,43.04
2019-04-05T12:40:30.087Z,43.01
2019-04-05T12:45:45.687Z,42.98
2019-04-05T12:51:06.293Z,43.35
2019-04-05T13:07:46.966Z,42.60
2019-04-05T13:13:11.280Z,41.70
2019-04-05T13:18:20.790Z,43.75
2019-04-05T13:23:47.489Z,43.88
2019-04-05T13:29:19.613Z,42.58
2019-04-05T13:34:25.800Z,43.43
2019-04-05T13:39:47.607Z,42.58
2019-04-05T13:45:08.515Z,43.04
2019-04-05T13:50:31.763Z,45.51
2019-04-05T13:55:47.479Z,44.86
2019-04-05T14:01:14.136Z,44.01
2019-04-05T14:07:34.117Z,41.23
2019-04-05T14:11:48.388Z,40.83
2019-04-05T14:17:08.739Z,39.68
2019-04-05T14:22:26.456Z,39.11
2019-04-05T14:27:49.103Z,39.19
2019-04-05T14:39:07.335Z,37.31
2019-04-05T14:44:40.732Z,33.34
2019-04-05T14:49:49.467Z,32.93
2019-04-05T14:55:02.074Z,34.08
2019-04-05T15:00:34.866Z,37.37
2019-04-05T15:05:49.899Z,39.40
2019-04-05T15:11:19.115Z,40.60
2019-04-05T15:16:49.146Z,41.94
2019-04-05T15:22:29.464Z,42.86
2019-04-05T15:27:47.146Z,44.14
2019-04-05T15:33:04.354Z,44.94
2019-04-05T15:38:20.209Z,44.60
2019-04-05T15:43:34.072Z,44.17
2019-04-05T15:49:21.588Z,42.50
2019-04-05T15:54:47.065Z,43.98
2019-04-05T16:00:10.950Z,45.58
2019-04-05T16:05:28.502Z,45.54
2019-04-05T16:10:49.062Z,45.87
2019-04-05T16:16:31.188Z,45.63
2019-04-05T16:21:45.471Z,45.42
2019-04-05T16:27:05.887Z,47.40
2019-04-05T16:32:23.462Z,48.19
2019-04-05T16:43:19.376Z,48.80
2019-04-05T16:48:48.714Z,50.26
2019-04-05T16:54:20.915Z,50.15
2019-04-05T16:59:37.316Z,50.43
2019-04-05T17:05:00.794Z,50.59
2019-04-05T17:10:15.185Z,50.66
2019-04-05T17:15:31.373Z,51.06
2019-04-05T17:20:48.793Z,51.41
2019-04-05T17:26:14.140Z,51.55
2019-04-05T17:31:32.842Z,51.13
2019-04-05T17:36:57.955Z,51.82
2019-04-05T17:47:56.481Z,52.40
2019-04-05T17:53:22.934Z,52.46
2019-04-05T17:58:57.055Z,52.86
2019-04-05T18:04:21.051Z,52.85
2019-04-05T18:10:02.576Z,53.00
2019-04-05T18:15:52.437Z,52.89
2019-04-05T18:21:09.200Z,53.11
2019-04-05T18:26:33.073Z,52.48
2019-04-05T18:32:13.526Z,52.11
2019-04-05T18:37:35.113Z,52.74
2019-04-05T18:43:03.161Z,53.46
2019-04-05T18:48:38.238Z,53.97
2019-04-05T18:54:10.122Z,54.15
2019-04-05T18:59:23.575Z,54.60
2019-04-05T19:05:08.694Z,54.84
2019-04-05T19:16:06.770Z,55.29
2019-04-05T19:21:24.913Z,55.90
2019-04-05T19:26:52.152Z,56.02
2019-04-05T19:53:35.514Z,57.39
2019-04-05T19:59:14.531Z,57.36
2019-04-05T20:04:34.201Z,57.50
2019-04-05T20:09:52.116Z,57.65
2019-04-05T20:15:08.904Z,58.03
2019-04-05T20:20:28.356Z,57.63
2019-04-05T20:25:59.614Z,57.83
2019-04-05T20:31:18.653Z,57.10
2019-04-05T20:36:55.628Z,57.66
2019-04-05T20:42:26.881Z,58.31
2019-04-05T20:47:26.365Z,58.39
2019-04-05T20:52:45.963Z,58.31
2019-04-05T20:58:02.775Z,59.13
2019-04-05T21:03:13.664Z,58.93
2019-04-05T21:08:38.883Z,58.89
2019-04-05T21:13:52.322Z,58.71
2019-04-05T21:19:13.511Z,59.47
2019-04-05T21:24:37.890Z,58.89
2019-04-05T21:29:51.629Z,59.60
2019-04-05T21:35:24.379Z,60.63
2019-04-05T21:40:39.857Z,60.94
2019-04-05T21:46:00.020Z,61.21
2019-04-05T21:51:15.970Z,60.85
2019-04-05T21:56:51.153Z,61.47
2019-04-05T22:02:00.685Z,62.24
2019-04-05T22:07:20.615Z,62.24
2019-04-05T22:12:52.124Z,61.57
2019-04-05T22:18:16.523Z,62.46
2019-04-05T22:23:37.803Z,61.88
2019-04-05T22:28:57.360Z,63.01
2019-04-05T22:34:41.098Z,63.25
2019-04-05T22:39:59.270Z,62.83
2019-04-05T22:45:19.262Z,62.58
2019-04-05T22:50:34.260Z,62.58
2019-04-05T22:55:52.171Z,62.80
2019-04-05T23:01:12.740Z,63.71
2019-04-05T23:17:12.524Z,62.74
2019-04-05T23:22:36.239Z,62.56
2019-04-05T23:28:20.484Z,62.54
2019-04-05T23:33:16.636Z,63.02
2019-04-05T23:38:32.969Z,62.96
2019-04-05T23:43:56.686Z,63.17
2019-04-05T23:49:14.947Z,63.47
2019-04-05T23:54:37.986Z,63.75
2019-04-05T23:59:59.703Z,63.68
